Time;durP1;ratioP1;P1;durP2;ratioP2;P2;SDS_P1;SDS_P2;PMS_P1;PMS_P2;Temp;Humidity;BMP_temperature;BMP_pressure;BME280_temperature;BME280_humidity;BME280_pressure;Samples;Min_cycle;Max_cycle;Signal;HPM_P1;HPM_P2
2019/07/04 00:00:45;;;;;;;3.8;1.6;;;;;;;18.09;48.53516;964.3882;;;;
2019/07/04 00:03:10;;;;;;;4.9;1.7;;;;;;;18.11;48.46582;964.3578;;;;
2019/07/04 00:05:35;;;;;;;5.4;1.8;;;;;;;18.13;48.75;964.2877;;;;
2019/07/04 00:08:00;;;;;;;5.1;1.9;;;;;;;18.14;50.29688;964.2792;;;;
2019/07/04 00:10:26;;;;;;;4.7;1.9;;;;;;;18.14;48.68066;964.2693;;;;
2019/07/04 00:12:51;;;;;;;4.7;2;;;;;;;18.15;49.39648;964.3031;;;;
2019/07/04 00:15:16;;;;;;;6.2;2.2;;;;;;;18.1;48.02051;964.3035;;;;
2019/07/04 00:17:41;;;;;;;5.3;1.8;;;;;;;18.03;50.63672;964.3083;;;;
2019/07/04 00:20:06;;;;;;;8;1.8;;;;;;;18.15;49.20898;964.3577;;;;
2019/07/04 00:22:31;;;;;;;6.7;1.9;;;;;;;18.04;49.60645;964.3655;;;;
2019/07/04 00:25:02;;;;;;;6.7;2.3;;;;;;;17.94;49.30273;964.3284;;;;
2019/07/04 00:27:21;;;;;;;7.1;2;;;;;;;18;48.61816;964.4297;;;;
2019/07/04 00:29:46;;;;;;;5.8;1.8;;;;;;;18.06;48.8125;964.4651;;;;
2019/07/04 00:32:12;;;;;;;5.9;2;;;;;;;18.04;48.83398;964.4316;;;;
2019/07/04 00:34:37;;;;;;;7.3;2.2;;;;;;;17.85;49.10547;964.3665;;;;
2019/07/04 00:37:02;;;;;;;5.1;2.1;;;;;;;17.81;49.73242;964.3386;;;;
2019/07/04 00:39:27;;;;;;;5;1.8;;;;;;;17.73;49.27832;964.41;;;;
2019/07/04 00:41:52;;;;;;;5.2;1.9;;;;;;;17.86;49.32813;964.472;;;;
2019/07/04 00:44:17;;;;;;;6.3;1.8;;;;;;;17.72;48.99805;964.5231;;;;
2019/07/04 00:46:42;;;;;;;5;1.8;;;;;;;17.61;51.93262;964.575;;;;
2019/07/04 00:49:07;;;;;;;3.9;1.8;;;;;;;17.64;50.35742;964.5511;;;;
2019/07/04 00:51:32;;;;;;;4.4;1.7;;;;;;;17.67;49.6582;964.538;;;;
2019/07/04 00:53:57;;;;;;;3.6;1.8;;;;;;;17.52;50.56543;964.5289;;;;
2019/07/04 00:56:23;;;;;;;5.5;1.9;;;;;;;17.61;50.07227;964.5817;;;;
2019/07/04 00:58:48;;;;;;;6.2;1.8;;;;;;;17.42;52.77441;964.5438;;;;
2019/07/04 01:01:13;;;;;;;5.4;2.1;;;;;;;17.45;51.18848;964.5364;;;;
2019/07/04 01:03:38;;;;;;;5.8;2;;;;;;;17.43;52.88184;964.4811;;;;
2019/07/04 01:06:03;;;;;;;5;2.1;;;;;;;17.21;53.80078;964.4983;;;;
2019/07/04 01:08:28;;;;;;;2.8;2;;;;;;;17.11;53.56738;964.5071;;;;
2019/07/04 01:10:53;;;;;;;6.8;2.2;;;;;;;17.29;51.47363;964.557;;;;
2019/07/04 01:13:18;;;;;;;4.9;2.2;;;;;;;17.34;51.18652;964.5898;;;;
2019/07/04 01:15:43;;;;;;;4.9;2;;;;;;;17.23;52.51855;964.6047;;;;
2019/07/04 01:18:08;;;;;;;4.1;1.7;;;;;;;17.27;51.00391;964.5972;;;;
2019/07/04 01:22:59;;;;;;;4.8;1.7;;;;;;;17.09;52.33789;964.6184;;;;
2019/07/04 01:25:24;;;;;;;4.8;1.8;;;;;;;16.94;52.0752;964.6741;;;;
2019/07/04 01:27:49;;;;;;;4.8;1.6;;;;;;;17.04;51.94629;964.7302;;;;
2019/07/04 01:30:14;;;;;;;4.6;1.6;;;;;;;16.95;52.90527;964.7498;;;;
2019/07/04 01:32:39;;;;;;;5.3;1.8;;;;;;;16.87;52.41797;964.7794;;;;
2019/07/04 01:35:04;;;;;;;3.9;1.9;;;;;;;16.84;54.72559;964.7555;;;;
2019/07/04 01:37:29;;;;;;;5;1.5;;;;;;;16.98;52.45313;964.8455;;;;
2019/07/04 01:39:55;;;;;;;5;1.5;;;;;;;16.95;52.69531;964.8231;;;;
2019/07/04 01:42:20;;;;;;;4.4;1.6;;;;;;;16.91;53.46094;964.7918;;;;
2019/07/04 01:44:45;;;;;;;4;1.7;;;;;;;16.83;54.11719;964.7832;;;;
2019/07/04 01:47:10;;;;;;;5.7;1.6;;;;;;;16.86;52.99902;964.7594;;;;
2019/07/04 01:49:36;;;;;;;4;1.8;;;;;;;16.89;52.99219;964.7422;;;;
2019/07/04 01:52:01;;;;;;;4.1;1.7;;;;;;;16.72;53.35547;964.7463;;;;
2019/07/04 01:54:26;;;;;;;3.9;1.7;;;;;;;16.61;54.79102;964.7172;;;;
2019/07/04 01:56:51;;;;;;;4.4;1.7;;;;;;;16.72;54.16113;964.7289;;;;
2019/07/04 01:59:16;;;;;;;5.2;2;;;;;;;16.79;53.51563;964.6778;;;;
2019/07/04 02:01:41;;;;;;;3.8;1.7;;;;;;;16.63;53.94141;964.6705;;;;
2019/07/04 02:04:07;;;;;;;3.7;1.8;;;;;;;16.63;54.36133;964.6919;;;;
2019/07/04 02:06:32;;;;;;;4.2;1.9;;;;;;;16.57;54.42383;964.7095;;;;
2019/07/04 02:08:57;;;;;;;4.2;1.8;;;;;;;16.43;54.53418;964.7272;;;;
2019/07/04 02:11:23;;;;;;;3.4;1.7;;;;;;;16.35;56.38965;964.7563;;;;
2019/07/04 02:13:48;;;;;;;3.6;1.8;;;;;;;16.44;54.88477;964.7181;;;;
2019/07/04 02:16:13;;;;;;;5.2;1.8;;;;;;;16.31;56.20996;964.6426;;;;
2019/07/04 02:18:38;;;;;;;3.5;1.7;;;;;;;16.39;55.96387;964.642;;;;
2019/07/04 02:21:04;;;;;;;5.5;1.9;;;;;;;16.41;56.92285;964.657;;;;
2019/07/04 02:23:29;;;;;;;5.3;2.2;;;;;;;16.41;56.36328;964.6512;;;;
2019/07/04 02:25:54;;;;;;;5.3;2.1;;;;;;;16.51;55.60449;964.5291;;;;
2019/07/04 02:28:19;;;;;;;5.4;2.5;;;;;;;16.53;55.50293;964.5465;;;;
2019/07/04 02:30:44;;;;;;;4.8;2.2;;;;;;;16.36;58.24707;964.4826;;;;
2019/07/04 02:33:10;;;;;;;5.4;2.5;;;;;;;16.47;56.12598;964.4869;;;;
2019/07/04 02:35:35;;;;;;;4.3;2.5;;;;;;;16.42;57.64746;964.4587;;;;
2019/07/04 02:38:00;;;;;;;5.6;2.4;;;;;;;16.41;56.63086;964.4892;;;;
2019/07/04 02:40:25;;;;;;;5.1;2.4;;;;;;;16.41;58.5791;964.4497;;;;
2019/07/04 02:42:51;;;;;;;7.3;3.2;;;;;;;16.29;57.84082;964.4631;;;;
2019/07/04 02:45:16;;;;;;;8.9;3.3;;;;;;;16.06;59.41797;964.5137;;;;
2019/07/04 02:47:41;;;;;;;8.3;4;;;;;;;16.17;58.23242;964.5613;;;;
2019/07/04 02:50:06;;;;;;;9.2;4.3;;;;;;;16.07;58.16211;964.528;;;;
2019/07/04 02:52:31;;;;;;;8.3;3.7;;;;;;;16.06;57.60059;964.5038;;;;
2019/07/04 02:54:56;;;;;;;8;3;;;;;;;16.02;57.55957;964.5416;;;;
2019/07/04 02:57:21;;;;;;;7.1;3.1;;;;;;;16.08;59.02441;964.5608;;;;
2019/07/04 02:59:47;;;;;;;5.5;3;;;;;;;15.99;57.82422;964.5701;;;;
2019/07/04 03:02:12;;;;;;;5.2;2.3;;;;;;;15.97;57.56543;964.6019;;;;
2019/07/04 03:04:37;;;;;;;4.9;2.3;;;;;;;15.82;59.89941;964.5599;;;;
2019/07/04 03:07:02;;;;;;;3.9;1.9;;;;;;;15.64;58.5;964.5502;;;;
2019/07/04 03:09:27;;;;;;;5.6;1.9;;;;;;;15.74;58.59473;964.5776;;;;
2019/07/04 03:11:53;;;;;;;6.3;2.1;;;;;;;15.8;59.23145;964.6348;;;;
2019/07/04 03:14:18;;;;;;;5.3;2.1;;;;;;;15.68;58.19141;964.6364;;;;
2019/07/04 03:16:43;;;;;;;4.2;1.8;;;;;;;15.83;57.83789;964.6588;;;;
2019/07/04 03:19:08;;;;;;;4.3;1.9;;;;;;;15.91;57.55664;964.6805;;;;
2019/07/04 03:21:33;;;;;;;7;2;;;;;;;15.76;59.89063;964.6211;;;;
2019/07/04 03:23:58;;;;;;;5.8;2.1;;;;;;;15.85;57.46777;964.625;;;;
2019/07/04 03:26:24;;;;;;;5.1;1.9;;;;;;;15.82;58.41895;964.6412;;;;
2019/07/04 03:28:49;;;;;;;4.2;2;;;;;;;15.77;58.25977;964.6124;;;;
2019/07/04 03:31:14;;;;;;;6.8;2.1;;;;;;;15.78;57.69043;964.6461;;;;
2019/07/04 03:33:39;;;;;;;5.2;2.3;;;;;;;15.72;57.14746;964.6588;;;;
2019/07/04 03:36:04;;;;;;;6.5;3.1;;;;;;;15.82;57.04395;964.6668;;;;
2019/07/04 03:38:30;;;;;;;7.3;3;;;;;;;15.8;57.64746;964.666;;;;
2019/07/04 03:40:55;;;;;;;6.8;3.1;;;;;;;15.67;57.38574;964.6794;;;;
2019/07/04 03:43:20;;;;;;;7.4;2.6;;;;;;;15.75;57.05762;964.6943;;;;
2019/07/04 03:45:45;;;;;;;6.1;2.7;;;;;;;15.72;58.04492;964.7944;;;;
2019/07/04 03:48:10;;;;;;;4.3;2.5;;;;;;;15.63;58.06738;964.7835;;;;
2019/07/04 03:50:36;;;;;;;6.9;2.9;;;;;;;15.73;56.93945;964.8313;;;;
2019/07/04 03:53:01;;;;;;;6;3.1;;;;;;;15.85;56.55957;964.7549;;;;
2019/07/04 03:55:26;;;;;;;7.9;3.6;;;;;;;15.69;57.72656;964.7769;;;;
2019/07/04 03:57:54;;;;;;;8.4;3.1;;;;;;;15.65;59.21094;964.7788;;;;
2019/07/04 04:02:27;;;;;;;6.3;3;;;;;;;15.61;58.4834;964.798;;;;
2019/07/04 04:04:52;;;;;;;6.2;2.8;;;;;;;15.59;57.48047;964.7512;;;;
2019/07/04 04:07:17;;;;;;;7.2;2.9;;;;;;;15.6;57.44727;964.7471;;;;
2019/07/04 04:09:42;;;;;;;8;2.7;;;;;;;15.64;58.02246;964.8139;;;;
2019/07/04 04:12:07;;;;;;;8;2.3;;;;;;;15.62;57.05371;964.8312;;;;
2019/07/04 04:16:54;;;;;;;5.9;2.2;;;;;;;15.63;57.71777;964.8575;;;;
2019/07/04 04:19:19;;;;;;;5.1;2.1;;;;;;;15.6;58.41211;964.8572;;;;
2019/07/04 04:21:44;;;;;;;5.3;1.9;;;;;;;15.67;57.12891;964.8405;;;;
2019/07/04 04:24:09;;;;;;;6.8;2.4;;;;;;;15.58;57.2002;964.815;;;;
2019/07/04 04:26:34;;;;;;;6.9;2.2;;;;;;;15.63;56.78711;964.8114;;;;
2019/07/04 04:28:59;;;;;;;5.9;2.2;;;;;;;15.66;57.31445;964.8783;;;;
2019/07/04 04:31:24;;;;;;;4.3;2;;;;;;;15.66;58.23535;964.8954;;;;
2019/07/04 04:33:49;;;;;;;4.9;1.9;;;;;;;15.57;58.38477;964.9169;;;;
2019/07/04 04:36:14;;;;;;;6.3;2.1;;;;;;;15.66;58.17676;964.8954;;;;
2019/07/04 04:38:39;;;;;;;4.6;2.2;;;;;;;15.79;56.45801;964.9041;;;;
2019/07/04 04:41:04;;;;;;;6;2.4;;;;;;;15.84;56.91797;964.9604;;;;
2019/07/04 04:43:29;;;;;;;4.2;2.1;;;;;;;15.81;56.98438;964.9939;;;;
2019/07/04 04:45:54;;;;;;;5.6;2;;;;;;;15.92;55.33301;964.9307;;;;
2019/07/04 04:48:20;;;;;;;4.7;1.9;;;;;;;15.94;56.70996;964.9487;;;;
2019/07/04 04:50:45;;;;;;;5.9;2.2;;;;;;;15.96;56.61914;964.9925;;;;
2019/07/04 04:53:10;;;;;;;6.2;2.2;;;;;;;15.97;57.19238;964.9916;;;;
2019/07/04 04:55:35;;;;;;;5.4;2.2;;;;;;;16.08;56.30957;965.0287;;;;
2019/07/04 04:58:00;;;;;;;7.7;2.7;;;;;;;15.95;58.92578;965.0148;;;;
2019/07/04 05:00:25;;;;;;;6.1;2.3;;;;;;;15.95;58.68164;965.0502;;;;
2019/07/04 05:02:50;;;;;;;6.3;2.6;;;;;;;16.08;57.82422;965.0385;;;;
2019/07/04 05:05:15;;;;;;;5;2.2;;;;;;;16.04;56.75781;965.0853;;;;
2019/07/04 05:07:40;;;;;;;5.1;2.4;;;;;;;16;57.05664;965.1111;;;;
2019/07/04 05:10:05;;;;;;;6.1;2.8;;;;;;;15.96;59.41504;965.2095;;;;
2019/07/04 05:12:30;;;;;;;6.5;2.5;;;;;;;16.02;56.53516;965.1664;;;;
2019/07/04 05:14:55;;;;;;;5.8;2.4;;;;;;;16.08;55.73828;965.1404;;;;
2019/07/04 05:17:21;;;;;;;6.3;2.3;;;;;;;16.11;53.74902;965.1531;;;;
2019/07/04 05:19:46;;;;;;;4.6;2.5;;;;;;;16.18;53.72168;965.1657;;;;
2019/07/04 05:22:11;;;;;;;4.6;2.1;;;;;;;16.27;53.26563;965.1859;;;;
2019/07/04 05:24:36;;;;;;;6;2.2;;;;;;;16.24;52.64453;965.1919;;;;
2019/07/04 05:27:01;;;;;;;4.9;2;;;;;;;16.26;54.56055;965.2486;;;;
2019/07/04 05:29:32;;;;;;;3.7;2.1;;;;;;;16.35;53.14746;965.2327;;;;
2019/07/04 05:31:51;;;;;;;7;2;;;;;;;16.16;53.5791;965.2537;;;;
2019/07/04 05:34:16;;;;;;;7.6;2;;;;;;;16.19;54.22363;965.2679;;;;
2019/07/04 05:36:41;;;;;;;4.7;1.8;;;;;;;15.99;54.15332;965.3068;;;;
2019/07/04 05:39:06;;;;;;;6.7;2.2;;;;;;;16.15;54.01074;965.3073;;;;
2019/07/04 05:41:31;;;;;;;5.2;1.8;;;;;;;16.29;52.74414;965.2619;;;;
2019/07/04 05:43:57;;;;;;;3.6;1.7;;;;;;;16.24;53.12305;965.2615;;;;
2019/07/04 05:46:22;;;;;;;4.7;2.1;;;;;;;16.17;54.03516;965.2751;;;;
2019/07/04 05:48:47;;;;;;;4.4;1.8;;;;;;;16.37;53.82715;965.3283;;;;
2019/07/04 05:51:12;;;;;;;4.4;2.1;;;;;;;16.38;54.36523;965.3627;;;;
2019/07/04 05:53:37;;;;;;;5.6;2;;;;;;;16.46;53.54688;965.3773;;;;
2019/07/04 05:56:02;;;;;;;3.8;1.8;;;;;;;16.51;53.5625;965.3962;;;;
2019/07/04 05:58:27;;;;;;;5.6;2;;;;;;;16.57;53.93359;965.3965;;;;
2019/07/04 06:00:52;;;;;;;4.4;1.9;;;;;;;16.6;54.75488;965.4041;;;;
2019/07/04 06:03:17;;;;;;;5.4;2.2;;;;;;;16.55;55.17969;965.437;;;;
2019/07/04 06:05:43;;;;;;;4.5;1.8;;;;;;;16.54;55.28223;965.4903;;;;
2019/07/04 06:08:07;;;;;;;5.6;1.8;;;;;;;16.72;54.94336;965.4903;;;;
2019/07/04 06:10:33;;;;;;;4.4;1.7;;;;;;;16.58;55.83691;965.5154;;;;
2019/07/04 06:12:58;;;;;;;4.7;1.8;;;;;;;16.61;54.40527;965.532;;;;
2019/07/04 06:15:23;;;;;;;5.8;2;;;;;;;16.7;56.00391;965.558;;;;
2019/07/04 06:17:48;;;;;;;4.9;1.9;;;;;;;16.88;53.66699;965.5442;;;;
2019/07/04 06:20:13;;;;;;;6.7;2;;;;;;;16.9;54.7334;965.6005;;;;
2019/07/04 06:22:39;;;;;;;4.7;1.8;;;;;;;16.98;54.32129;965.6269;;;;
2019/07/04 06:25:04;;;;;;;4.5;1.9;;;;;;;16.95;55.46289;965.6738;;;;
2019/07/04 06:27:29;;;;;;;7.2;2.3;;;;;;;17.06;55.2793;965.6577;;;;
2019/07/04 06:29:54;;;;;;;6.6;2.3;;;;;;;17.05;54.33008;965.6872;;;;
2019/07/04 06:32:19;;;;;;;6.5;2.3;;;;;;;16.92;55.03906;965.6843;;;;
2019/07/04 06:34:45;;;;;;;4.7;2.3;;;;;;;17.21;54.71289;965.7242;;;;
2019/07/04 06:37:10;;;;;;;5.6;2.3;;;;;;;17.19;54.125;965.7488;;;;
2019/07/04 06:39:35;;;;;;;8.4;2.8;;;;;;;17.29;56.18359;965.7731;;;;
2019/07/04 06:42:00;;;;;;;10.3;3;;;;;;;17.5;54.95996;965.7983;;;;
2019/07/04 06:44:25;;;;;;;6;2.4;;;;;;;17.5;56.05957;965.7291;;;;
2019/07/04 06:46:50;;;;;;;6.8;2.1;;;;;;;17.42;56.0957;965.7634;;;;
2019/07/04 06:49:15;;;;;;;6.8;2.4;;;;;;;17.59;55.16992;965.707;;;;
2019/07/04 06:51:40;;;;;;;5.8;2.4;;;;;;;17.68;55.41504;965.7261;;;;
2019/07/04 06:54:05;;;;;;;5;2.3;;;;;;;17.83;55.24609;965.7255;;;;
2019/07/04 06:56:30;;;;;;;7.2;2.2;;;;;;;17.77;55.09766;965.7853;;;;
2019/07/04 06:58:56;;;;;;;5.4;2.2;;;;;;;17.81;54.98633;965.785;;;;
2019/07/04 07:01:21;;;;;;;4.9;2;;;;;;;17.83;54.04102;965.7271;;;;
2019/07/04 07:03:46;;;;;;;6.3;2.2;;;;;;;17.83;56.38281;965.7101;;;;
2019/07/04 07:06:11;;;;;;;4.8;1.8;;;;;;;17.92;56.13672;965.7332;;;;
2019/07/04 07:08:37;;;;;;;7.6;2;;;;;;;18.17;53.64941;965.728;;;;
2019/07/04 07:11:02;;;;;;;7.7;2.1;;;;;;;18.04;54.05566;965.7076;;;;
2019/07/04 07:13:27;;;;;;;5.1;2;;;;;;;17.88;54.39844;965.7009;;;;
2019/07/04 07:15:53;;;;;;;6.9;2;;;;;;;18;54.07422;965.709;;;;
2019/07/04 07:18:18;;;;;;;5.3;2.2;;;;;;;18.03;55.21387;965.6884;;;;
2019/07/04 07:20:43;;;;;;;7.3;2.2;;;;;;;17.96;55.41504;965.6969;;;;
2019/07/04 07:23:08;;;;;;;6.2;2.1;;;;;;;18.19;54.03906;965.7009;;;;
2019/07/04 07:25:34;;;;;;;4.6;1.8;;;;;;;18.3;53.41992;965.7756;;;;
2019/07/04 07:27:58;;;;;;;4.3;1.9;;;;;;;18.23;53.07129;965.7115;;;;
2019/07/04 07:30:23;;;;;;;7.5;1.9;;;;;;;18.48;52.08203;965.7194;;;;
2019/07/04 07:32:49;;;;;;;6.2;2.1;;;;;;;18.65;51.11719;965.7645;;;;
2019/07/04 07:35:14;;;;;;;4.5;2.3;;;;;;;18.66;51.50586;965.7692;;;;
2019/07/04 07:37:39;;;;;;;4;2;;;;;;;18.68;50.40527;965.8469;;;;
2019/07/04 07:40:04;;;;;;;7.8;2.2;;;;;;;18.53;50.92676;965.8061;;;;
2019/07/04 07:42:29;;;;;;;5.5;2.3;;;;;;;18.71;50.71387;965.8163;;;;
2019/07/04 07:44:54;;;;;;;4.4;2;;;;;;;18.78;51.57715;965.7809;;;;
2019/07/04 07:47:19;;;;;;;5.3;2.2;;;;;;;18.84;49.97852;965.8063;;;;
2019/07/04 07:49:44;;;;;;;4.2;2;;;;;;;18.96;49.63965;965.7827;;;;
2019/07/04 07:52:10;;;;;;;5.2;1.9;;;;;;;19.11;49.69141;965.8365;;;;
2019/07/04 07:54:35;;;;;;;5.6;2;;;;;;;19.1;49.25684;965.8301;;;;
2019/07/04 07:57:00;;;;;;;5.1;2;;;;;;;18.91;49.79883;965.8533;;;;
2019/07/04 07:59:26;;;;;;;3.5;1.7;;;;;;;18.93;49.62402;965.8622;;;;
2019/07/04 08:01:51;;;;;;;5.1;2;;;;;;;18.88;51.87109;965.812;;;;
2019/07/04 08:04:16;;;;;;;6;2;;;;;;;19.06;53.18262;965.861;;;;
2019/07/04 08:06:41;;;;;;;4.7;1.9;;;;;;;19.04;51.10352;965.875;;;;
2019/07/04 08:09:06;;;;;;;7.2;1.9;;;;;;;19.24;49.47168;965.8627;;;;
2019/07/04 08:11:31;;;;;;;5.6;1.7;;;;;;;19.33;50.26855;965.8325;;;;
2019/07/04 08:13:57;;;;;;;4.3;2;;;;;;;19.25;50.50684;965.8278;;;;
2019/07/04 08:16:22;;;;;;;6.1;2.1;;;;;;;19.24;51.2207;965.8611;;;;
2019/07/04 08:18:47;;;;;;;4.6;1.9;;;;;;;19.42;49.38574;965.851;;;;
2019/07/04 08:21:13;;;;;;;5;2;;;;;;;19.48;49.0166;965.873;;;;
2019/07/04 08:23:38;;;;;;;3.9;2;;;;;;;19.67;48.23926;965.8705;;;;
2019/07/04 08:26:06;;;;;;;4.1;1.8;;;;;;;19.48;48.24121;965.8474;;;;
2019/07/04 08:28:31;;;;;;;5;1.9;;;;;;;19.36;50.64844;965.8125;;;;
2019/07/04 08:30:57;;;;;;;5.5;2.1;;;;;;;19.41;50.14746;965.851;;;;
2019/07/04 08:33:22;;;;;;;4.9;1.8;;;;;;;19.53;49.71582;965.8329;;;;
2019/07/04 08:35:49;;;;;;;3.5;1.8;;;;;;;19.66;49.70703;965.8698;;;;
2019/07/04 08:38:14;;;;;;;7.3;1.9;;;;;;;19.77;51.62305;965.8986;;;;
2019/07/04 08:40:39;;;;;;;8.2;2.1;;;;;;;19.85;49.74023;965.9007;;;;
2019/07/04 08:43:04;;;;;;;7.1;1.8;;;;;;;19.85;50.01074;965.9205;;;;
2019/07/04 08:45:29;;;;;;;5.9;1.9;;;;;;;19.86;49.10645;965.9072;;;;
2019/07/04 08:47:55;;;;;;;6.7;1.9;;;;;;;19.93;48.33887;965.9067;;;;
2019/07/04 08:50:20;;;;;;;4.9;2;;;;;;;20.09;47.58984;965.855;;;;
2019/07/04 08:52:45;;;;;;;4.6;1.9;;;;;;;20.16;47.71582;965.8435;;;;
2019/07/04 08:55:10;;;;;;;5.7;2.1;;;;;;;20.3;46.95508;965.8159;;;;
2019/07/04 08:57:35;;;;;;;3.2;1.6;;;;;;;20.24;46.67773;965.8172;;;;
2019/07/04 09:00:01;;;;;;;4.7;2;;;;;;;20.37;47.03223;965.8047;;;;
2019/07/04 09:02:26;;;;;;;5.9;1.8;;;;;;;20.32;47.5459;965.8489;;;;
2019/07/04 09:04:51;;;;;;;4.7;1.8;;;;;;;20.32;48.80371;965.7803;;;;
2019/07/04 09:07:16;;;;;;;9.4;2;;;;;;;20.37;46.61914;965.8226;;;;
2019/07/04 09:09:41;;;;;;;5;1.9;;;;;;;20.52;46.07129;965.8094;;;;
2019/07/04 09:12:06;;;;;;;5.3;2;;;;;;;20.5;47.41113;965.7894;;;;
2019/07/04 09:14:31;;;;;;;4.3;1.8;;;;;;;20.57;48.18359;965.793;;;;
2019/07/04 09:16:56;;;;;;;6.4;1.9;;;;;;;20.64;46.47266;965.7701;;;;
2019/07/04 09:19:22;;;;;;;5;1.8;;;;;;;20.77;45.16602;965.7877;;;;
2019/07/04 09:21:47;;;;;;;3.7;1.6;;;;;;;20.8;46.25391;965.7715;;;;
2019/07/04 09:24:12;;;;;;;4.2;1.7;;;;;;;20.98;45.41211;965.8167;;;;
2019/07/04 09:26:37;;;;;;;3.5;1.8;;;;;;;21.02;45.00391;965.8013;;;;
2019/07/04 09:29:02;;;;;;;6.2;2.3;;;;;;;21.09;45.21191;965.8577;;;;
2019/07/04 09:31:27;;;;;;;7;1.7;;;;;;;21.05;45.4541;965.7612;;;;
2019/07/04 09:33:52;;;;;;;5.6;2;;;;;;;21.31;45.32813;965.7862;;;;
2019/07/04 09:36:17;;;;;;;4.6;2;;;;;;;21.34;45.07129;965.8016;;;;
2019/07/04 09:38:43;;;;;;;7;1.9;;;;;;;21.32;44.50293;965.7825;;;;
2019/07/04 09:41:08;;;;;;;5.1;1.7;;;;;;;21.33;45.40039;965.7625;;;;
2019/07/04 09:43:33;;;;;;;4.6;1.8;;;;;;;21.45;44.39844;965.7714;;;;
2019/07/04 09:45:58;;;;;;;5.1;1.6;;;;;;;21.46;41.79102;965.7621;;;;
2019/07/04 09:48:24;;;;;;;4.1;1.5;;;;;;;21.56;43.00391;965.7939;;;;
2019/07/04 09:50:49;;;;;;;4.3;1.7;;;;;;;21.53;43.30957;965.7726;;;;
2019/07/04 09:53:14;;;;;;;5.6;1.8;;;;;;;21.45;44.30469;965.7614;;;;
2019/07/04 09:55:39;;;;;;;4.6;1.5;;;;;;;21.51;43.7666;965.7333;;;;
2019/07/04 09:58:04;;;;;;;5;1.5;;;;;;;21.66;42.87305;965.7361;;;;
2019/07/04 10:00:29;;;;;;;4.8;1.7;;;;;;;21.67;42.03516;965.7159;;;;
2019/07/04 10:02:54;;;;;;;6;1.3;;;;;;;21.86;40.30566;965.6848;;;;
2019/07/04 10:05:19;;;;;;;5.9;1.3;;;;;;;22;40.23633;965.6875;;;;
2019/07/04 10:07:44;;;;;;;3.5;1.4;;;;;;;22.09;40.04297;965.6579;;;;
2019/07/04 10:10:09;;;;;;;5.8;1.2;;;;;;;22.17;39.06934;965.6139;;;;
2019/07/04 10:12:34;;;;;;;4.3;1.3;;;;;;;22.04;40.22754;965.6397;;;;
2019/07/04 10:15:00;;;;;;;5.4;1.5;;;;;;;22.04;39.41211;965.5251;;;;
2019/07/04 10:17:25;;;;;;;6.3;1.7;;;;;;;22.17;41.78809;965.5798;;;;
2019/07/04 10:19:50;;;;;;;4.4;1.7;;;;;;;22.17;40.87793;965.5549;;;;
2019/07/04 10:22:15;;;;;;;3.4;1.6;;;;;;;22.19;41.54004;965.5295;;;;
2019/07/04 10:24:40;;;;;;;5;1.5;;;;;;;22.19;41.77734;965.5453;;;;
2019/07/04 10:27:05;;;;;;;4.1;1.6;;;;;;;22.1;38.80371;965.5656;;;;
2019/07/04 10:29:30;;;;;;;2.3;1.4;;;;;;;22.18;38.32617;965.4981;;;;
2019/07/04 10:31:55;;;;;;;3.6;1.4;;;;;;;22.27;36.97461;965.5374;;;;
2019/07/04 10:34:20;;;;;;;3.7;1.4;;;;;;;22.32;36.96582;965.5002;;;;
2019/07/04 10:36:46;;;;;;;5.3;1.4;;;;;;;22.44;38.50195;965.4988;;;;
2019/07/04 10:39:11;;;;;;;2.7;1.3;;;;;;;22.49;39.38086;965.5533;;;;
2019/07/04 10:41:36;;;;;;;5.4;1.3;;;;;;;22.36;37.14746;965.5589;;;;
2019/07/04 10:44:01;;;;;;;4.2;1.3;;;;;;;22.28;37.87402;965.561;;;;
2019/07/04 10:46:26;;;;;;;3.6;1.5;;;;;;;22.43;39.06836;965.5252;;;;
2019/07/04 10:48:51;;;;;;;2.6;1.4;;;;;;;22.43;39.8252;965.4788;;;;
2019/07/04 10:51:16;;;;;;;4.6;1.4;;;;;;;22.43;40.25195;965.4994;;;;
2019/07/04 10:53:41;;;;;;;5;1.7;;;;;;;22.44;40.63086;965.4828;;;;
2019/07/04 10:56:06;;;;;;;5;1.6;;;;;;;22.51;39.78516;965.4001;;;;
2019/07/04 10:58:32;;;;;;;4.4;1.5;;;;;;;22.72;41.22363;965.4917;;;;
2019/07/04 11:00:57;;;;;;;3.4;1.6;;;;;;;22.81;40.90039;965.4475;;;;
2019/07/04 11:03:22;;;;;;;3.6;1.6;;;;;;;23.03;40.55469;965.4383;;;;
2019/07/04 11:05:47;;;;;;;4.5;1.6;;;;;;;23.14;40.49414;965.403;;;;
2019/07/04 11:08:12;;;;;;;4.4;1.8;;;;;;;23.31;40.30664;965.4235;;;;
2019/07/04 11:10:37;;;;;;;7;1.6;;;;;;;23.36;40.43066;965.3975;;;;
2019/07/04 11:13:02;;;;;;;4.6;1.6;;;;;;;23.38;40.83496;965.3986;;;;
2019/07/04 11:15:27;;;;;;;3.6;1.5;;;;;;;23.47;40.02539;965.3627;;;;
2019/07/04 11:17:52;;;;;;;3.8;1.7;;;;;;;23.51;40.44434;965.3467;;;;
2019/07/04 11:20:18;;;;;;;4.2;1.7;;;;;;;23.59;38.90918;965.3374;;;;
2019/07/04 11:22:43;;;;;;;8.3;2;;;;;;;23.67;39.41504;965.3715;;;;
2019/07/04 11:25:08;;;;;;;4.6;1.7;;;;;;;23.73;38.10352;965.3347;;;;
2019/07/04 11:27:33;;;;;;;6.6;1.5;;;;;;;23.61;38.97168;965.2371;;;;
2019/07/04 11:29:58;;;;;;;6.3;1.8;;;;;;;23.64;39.75586;965.2456;;;;
2019/07/04 11:32:23;;;;;;;3.7;1.6;;;;;;;23.83;43.16504;965.1799;;;;
2019/07/04 11:34:48;;;;;;;3.7;1.2;;;;;;;23.78;39.63867;965.1069;;;;
2019/07/04 11:37:13;;;;;;;5.1;1.5;;;;;;;23.72;38.71973;965.1589;;;;
2019/07/04 11:39:39;;;;;;;3.7;1.5;;;;;;;23.82;37.82715;965.116;;;;
2019/07/04 11:42:04;;;;;;;3.7;1.4;;;;;;;23.94;37.91992;965.0915;;;;
2019/07/04 11:44:29;;;;;;;7.2;1.7;;;;;;;23.91;36.50586;964.9813;;;;
2019/07/04 11:46:54;;;;;;;4.4;1.5;;;;;;;24.27;39.50293;965.0455;;;;
2019/07/04 11:49:19;;;;;;;5;1.7;;;;;;;24.27;37.9834;965.0247;;;;
2019/07/04 11:51:44;;;;;;;6.6;1.8;;;;;;;24.27;37.16406;965.0371;;;;
2019/07/04 11:54:09;;;;;;;3.2;1.6;;;;;;;24.13;36.58301;965.0524;;;;
2019/07/04 11:56:34;;;;;;;5.5;1.4;;;;;;;24.06;36.91016;964.9526;;;;
2019/07/04 11:58:59;;;;;;;4.2;1.5;;;;;;;24.16;36.96582;964.9514;;;;
2019/07/04 12:01:27;;;;;;;5.2;1.7;;;;;;;24.01;37.87793;964.8895;;;;
2019/07/04 12:03:52;;;;;;;7.2;1.8;;;;;;;24.02;38.18848;964.8661;;;;
2019/07/04 12:06:18;;;;;;;6.1;1.7;;;;;;;24.15;41.91504;964.8621;;;;
2019/07/04 12:08:43;;;;;;;5.8;1.6;;;;;;;24.19;37.58496;964.8791;;;;
2019/07/04 12:11:08;;;;;;;4.4;1.5;;;;;;;24.17;39.79102;964.8463;;;;
2019/07/04 12:13:34;;;;;;;5.5;1.5;;;;;;;24.18;40.125;964.8561;;;;
2019/07/04 12:15:59;;;;;;;5.4;1.9;;;;;;;24.44;38.03418;964.8721;;;;
2019/07/04 12:18:23;;;;;;;4.5;1.4;;;;;;;24.45;38.79492;964.8084;;;;
2019/07/04 12:20:49;;;;;;;5.2;1.6;;;;;;;24.53;39.98926;964.7528;;;;
2019/07/04 12:23:14;;;;;;;5.1;1.6;;;;;;;24.74;36.8584;964.7536;;;;
2019/07/04 12:25:39;;;;;;;4.4;1.4;;;;;;;24.82;36.81738;964.6663;;;;
2019/07/04 12:28:04;;;;;;;3.7;1.5;;;;;;;24.9;36.46777;964.6964;;;;
2019/07/04 12:30:30;;;;;;;3.1;1.4;;;;;;;24.93;35.01953;964.6816;;;;
2019/07/04 12:32:55;;;;;;;5.4;1.7;;;;;;;25.02;35.41895;964.6863;;;;
2019/07/04 12:35:20;;;;;;;7.7;1.8;;;;;;;25.25;34.47266;964.6345;;;;
2019/07/04 12:37:45;;;;;;;8.7;1.7;;;;;;;25.28;35.58203;964.6489;;;;
2019/07/04 12:40:10;;;;;;;3.4;1.4;;;;;;;25.43;35.34473;964.6542;;;;
2019/07/04 12:42:35;;;;;;;4.3;1.6;;;;;;;25.53;35.08984;964.6253;;;;
2019/07/04 12:45:00;;;;;;;2.9;1.6;;;;;;;25.57;34.62891;964.6053;;;;
2019/07/04 12:47:25;;;;;;;4.8;1.7;;;;;;;25.37;34.33984;964.6702;;;;
2019/07/04 12:49:50;;;;;;;4;1.6;;;;;;;25.45;34.46484;964.6583;;;;
2019/07/04 12:52:15;;;;;;;6.1;1.6;;;;;;;25.21;33.12598;964.616;;;;
2019/07/04 12:54:41;;;;;;;5.9;1.8;;;;;;;25.49;33.6709;964.6396;;;;
2019/07/04 12:57:06;;;;;;;3.6;1.6;;;;;;;25.63;33.53906;964.5405;;;;
2019/07/04 12:59:31;;;;;;;4.4;1.5;;;;;;;25.78;34.34766;964.4817;;;;
2019/07/04 13:01:56;;;;;;;3.7;1.4;;;;;;;26.1;33.4541;964.5071;;;;
2019/07/04 13:04:21;;;;;;;6.7;1.7;;;;;;;26.01;32.74414;964.5485;;;;
2019/07/04 13:06:47;;;;;;;4.3;1.7;;;;;;;25.78;35.26465;964.4741;;;;
2019/07/04 13:09:12;;;;;;;5;1.8;;;;;;;25.66;33.34961;964.4956;;;;
2019/07/04 13:11:37;;;;;;;6.5;1.5;;;;;;;25.64;34.66992;964.4981;;;;
2019/07/04 13:14:02;;;;;;;3.8;1.6;;;;;;;25.61;33.87109;964.4595;;;;
2019/07/04 13:16:28;;;;;;;5;1.7;;;;;;;25.61;33.79883;964.4412;;;;
2019/07/04 13:18:53;;;;;;;4.1;1.5;;;;;;;25.62;34.35938;964.4219;;;;
2019/07/04 13:21:18;;;;;;;6.2;1.5;;;;;;;25.7;33.35254;964.3616;;;;
2019/07/04 13:23:43;;;;;;;4.1;1.6;;;;;;;25.77;33.27441;964.2941;;;;
2019/07/04 13:26:08;;;;;;;4.1;1.4;;;;;;;25.78;33.21582;964.2952;;;;
2019/07/04 13:28:33;;;;;;;3.7;1.4;;;;;;;25.57;34.35547;964.2186;;;;
2019/07/04 13:30:59;;;;;;;4.3;1.5;;;;;;;25.94;33.3584;964.2175;;;;
2019/07/04 13:33:24;;;;;;;5.6;1.5;;;;;;;25.96;32.70508;964.2402;;;;
2019/07/04 13:35:49;;;;;;;4.5;1.4;;;;;;;25.68;32.5293;964.1942;;;;
2019/07/04 13:38:15;;;;;;;4.7;1.4;;;;;;;25.81;32.24121;964.2117;;;;
2019/07/04 13:40:39;;;;;;;4.1;1.6;;;;;;;25.97;31.53711;964.1358;;;;
2019/07/04 13:43:05;;;;;;;3.9;1.4;;;;;;;26;30.71777;964.1387;;;;
2019/07/04 13:45:30;;;;;;;5.1;1.6;;;;;;;25.92;30.86621;964.0814;;;;
2019/07/04 13:47:55;;;;;;;5;1.3;;;;;;;26.22;31.91309;964.1083;;;;
2019/07/04 13:50:20;;;;;;;4.9;1.3;;;;;;;26.33;31.84863;964.1239;;;;
2019/07/04 13:52:46;;;;;;;4;1.5;;;;;;;26.23;31.9375;964.0302;;;;
2019/07/04 13:55:11;;;;;;;3.6;1.5;;;;;;;26.32;32.37305;964.0783;;;;
2019/07/04 13:57:36;;;;;;;4.6;1.5;;;;;;;26.11;32.22656;964.0229;;;;
2019/07/04 14:00:01;;;;;;;7.6;1.8;;;;;;;25.83;34.19629;963.9958;;;;
2019/07/04 14:02:26;;;;;;;4.9;1.8;;;;;;;25.97;33.13477;963.9426;;;;
2019/07/04 14:04:51;;;;;;;5.1;1.7;;;;;;;26.2;34.49902;963.9936;;;;
2019/07/04 14:07:17;;;;;;;6.4;1.6;;;;;;;25.98;32.58789;963.973;;;;
2019/07/04 14:09:42;;;;;;;5.7;1.4;;;;;;;25.89;32.60449;963.9628;;;;
2019/07/04 14:12:07;;;;;;;4.3;1.8;;;;;;;25.9;33.47559;963.944;;;;
2019/07/04 14:14:33;;;;;;;5.4;1.6;;;;;;;25.91;32.8916;963.8605;;;;
2019/07/04 14:16:58;;;;;;;5.9;1.5;;;;;;;26.05;32.60449;963.8066;;;;
2019/07/04 14:19:23;;;;;;;5.1;1.5;;;;;;;26.15;31.85938;963.837;;;;